Time;durP1;ratioP1;P1;durP2;ratioP2;P2;SDS_P1;SDS_P2;PMS_P1;PMS_P2;Temp;Humidity;BMP_temperature;BMP_pressure;BME280_temperature;BME280_humidity;BME280_pressure;Samples;Min_cycle;Max_cycle;Signal;HPM_P1;HPM_P2
2023/07/04 00:00:37;;;;;;;0.45;0.20;;;;;;;;;;5035978;28;20634;-62
2023/07/04 00:03:03;;;;;;;0.38;0.17;;;;;;;;;;5035236;28;20038;-62
2023/07/04 00:05:29;;;;;;;0.77;0.40;;;;;;;;;;5036205;28;20045;-62
2023/07/04 00:07:55;;;;;;;1.42;0.40;;;;;;;;;;5038110;28;20409;-62
2023/07/04 00:10:21;;;;;;;0.70;0.32;;;;;;;;;;5036524;28;20050;-62
2023/07/04 00:12:47;;;;;;;0.40;0.28;;;;;;;;;;5038256;28;20053;-62
2023/07/04 00:15:14;;;;;;;0.80;0.30;;;;;;;;;;5042305;28;20056;-62
2023/07/04 00:17:42;;;;;;;0.45;0.20;;;;;;;;;;5039306;28;20052;-62
2023/07/04 00:20:09;;;;;;;0.98;0.28;;;;;;;;;;5037943;28;20051;-62
2023/07/04 00:22:36;;;;;;;1.23;0.22;;;;;;;;;;5040416;28;20130;-62
2023/07/04 00:25:04;;;;;;;0.98;0.30;;;;;;;;;;5038093;28;20160;-62
2023/07/04 00:27:33;;;;;;;0.10;0.10;;;;;;;;;;5033064;28;20497;-62
2023/07/04 00:30:03;;;;;;;1.40;0.38;;;;;;;;;;5036668;28;20053;-62
2023/07/04 00:32:29;;;;;;;1.15;0.30;;;;;;;;;;5040292;28;20615;-62
2023/07/04 00:34:55;;;;;;;0.00;0.00;;;;;;;;;;5036538;28;20088;-62
2023/07/04 00:37:21;;;;;;;0.30;0.20;;;;;;;;;;5035982;28;20103;-62
2023/07/04 00:39:50;;;;;;;1.02;0.45;;;;;;;;;;5040234;28;20045;-62
2023/07/04 00:42:16;;;;;;;0.88;0.30;;;;;;;;;;5035830;28;20049;-62
2023/07/04 00:44:47;;;;;;;0.20;0.20;;;;;;;;;;5032869;28;20099;-62
2023/07/04 00:47:21;;;;;;;0.10;0.10;;;;;;;;;;5035980;28;20125;-62
2023/07/04 00:49:57;;;;;;;0.65;0.20;;;;;;;;;;5037614;28;20171;-62
2023/07/04 00:52:25;;;;;;;0.10;0.10;;;;;;;;;;5037620;28;20478;-62
2023/07/04 00:54:57;;;;;;;0.47;0.20;;;;;;;;;;5036096;28;20045;-62
2023/07/04 00:57:23;;;;;;;;;;;;;;;;;;5039002;28;20055;-62
2023/07/04 00:59:52;;;;;;;0.88;0.28;;;;;;;;;;5036379;28;19921;-62
2023/07/04 01:02:20;;;;;;;0.65;0.17;;;;;;;;;;5037506;28;20044;-62
2023/07/04 01:04:47;;;;;;;0.10;0.10;;;;;;;;;;5039315;28;20087;-63
2023/07/04 01:07:17;;;;;;;0.45;0.15;;;;;;;;;;5036285;28;20047;-63
2023/07/04 01:09:46;;;;;;;1.35;0.30;;;;;;;;;;5037755;28;20041;-63
2023/07/04 01:12:13;;;;;;;1.48;0.30;;;;;;;;;;5034891;28;20053;-63
2023/07/04 01:14:41;;;;;;;0.20;0.20;;;;;;;;;;5039318;28;20045;-63
2023/07/04 01:17:07;;;;;;;0.17;0.10;;;;;;;;;;5037565;28;20052;-63
2023/07/04 01:19:35;;;;;;;0.20;0.20;;;;;;;;;;5038139;28;20048;-63
2023/07/04 01:22:07;;;;;;;0.30;0.20;;;;;;;;;;5038356;28;20124;-63
2023/07/04 01:24:33;;;;;;;;;;;;;;;;;;5038932;28;20681;-63
2023/07/04 01:26:59;;;;;;;0.30;0.30;;;;;;;;;;5038808;28;19950;-63
2023/07/04 01:29:25;;;;;;;0.20;0.20;;;;;;;;;;5038009;28;20095;-63
2023/07/04 01:31:52;;;;;;;0.20;0.10;;;;;;;;;;5036388;28;20041;-63
2023/07/04 01:34:20;;;;;;;0.10;0.10;;;;;;;;;;5037629;28;20038;-63
2023/07/04 01:36:47;;;;;;;0.10;0.10;;;;;;;;;;5037023;28;20053;-63
2023/07/04 01:39:16;;;;;;;0.17;0.17;;;;;;;;;;5036161;28;20099;-63
2023/07/04 01:41:44;;;;;;;0.40;0.30;;;;;;;;;;5036559;28;20041;-63
2023/07/04 01:44:10;;;;;;;0.35;0.30;;;;;;;;;;5036238;28;20052;-63
2023/07/04 01:46:36;;;;;;;0.63;0.40;;;;;;;;;;5034583;28;20045;-63
2023/07/04 01:49:03;;;;;;;0.50;0.13;;;;;;;;;;5037847;28;20124;-63
2023/07/04 01:51:30;;;;;;;0.43;0.10;;;;;;;;;;5036706;28;20029;-63
2023/07/04 01:53:57;;;;;;;0.47;0.20;;;;;;;;;;5037982;28;20041;-63
2023/07/04 01:56:23;;;;;;;1.23;0.20;;;;;;;;;;5037478;28;20051;-62
2023/07/04 01:58:49;;;;;;;0.30;0.30;;;;;;;;;;5035399;28;20038;-62
2023/07/04 02:01:15;;;;;;;0.15;0.10;;;;;;;;;;5034772;28;20037;-62
2023/07/04 02:03:41;;;;;;;0.45;0.40;;;;;;;;;;5038394;28;20057;-63
2023/07/04 02:06:07;;;;;;;0.77;0.35;;;;;;;;;;5035055;28;20674;-63
2023/07/04 02:08:33;;;;;;;0.70;0.45;;;;;;;;;;5038112;28;20037;-63
2023/07/04 02:10:59;;;;;;;0.30;0.30;;;;;;;;;;5037894;28;20059;-63
2023/07/04 02:13:25;;;;;;;0.10;0.10;;;;;;;;;;5037131;28;20053;-63
2023/07/04 02:15:51;;;;;;;0.10;0.10;;;;;;;;;;5035848;28;20052;-63
2023/07/04 02:18:18;;;;;;;0.47;0.38;;;;;;;;;;5035348;28;20071;-63
2023/07/04 02:20:44;;;;;;;0.15;0.15;;;;;;;;;;5037737;28;20044;-63
2023/07/04 02:23:10;;;;;;;0.20;0.20;;;;;;;;;;5035564;28;20076;-63
2023/07/04 02:25:40;;;;;;;0.52;0.20;;;;;;;;;;5037461;28;20796;-63
2023/07/04 02:28:06;;;;;;;0.35;0.10;;;;;;;;;;5033375;28;20118;-63
2023/07/04 02:30:33;;;;;;;0.43;0.20;;;;;;;;;;5036593;28;20083;-63
2023/07/04 02:32:59;;;;;;;0.10;0.10;;;;;;;;;;5037826;28;20095;-63
2023/07/04 02:35:25;;;;;;;0.30;0.20;;;;;;;;;;5036751;28;20131;-63
2023/07/04 02:37:51;;;;;;;0.47;0.40;;;;;;;;;;5035695;28;20053;-63
2023/07/04 02:40:17;;;;;;;0.30;0.30;;;;;;;;;;5033608;28;20044;-63
2023/07/04 02:42:43;;;;;;;0.47;0.30;;;;;;;;;;5035305;28;20512;-63
2023/07/04 02:45:09;;;;;;;0.30;0.30;;;;;;;;;;5038090;28;20045;-63
2023/07/04 02:47:35;;;;;;;0.20;0.20;;;;;;;;;;5033310;28;20065;-63
2023/07/04 02:50:01;;;;;;;0.63;0.40;;;;;;;;;;5038054;28;20045;-63
2023/07/04 02:52:28;;;;;;;0.77;0.70;;;;;;;;;;5033028;28;20854;-63
2023/07/04 02:54:54;;;;;;;1.52;0.38;;;;;;;;;;5038235;28;20120;-63
2023/07/04 02:57:20;;;;;;;1.13;0.40;;;;;;;;;;5031199;28;20080;-63
2023/07/04 02:59:46;;;;;;;0.57;0.30;;;;;;;;;;5032922;28;20223;-63
2023/07/04 03:02:12;;;;;;;1.00;0.30;;;;;;;;;;5033027;28;20069;-63
2023/07/04 03:04:38;;;;;;;0.70;0.70;;;;;;;;;;5034563;28;20041;-63
2023/07/04 03:07:04;;;;;;;1.35;0.80;;;;;;;;;;5035474;28;20047;-63
2023/07/04 03:09:30;;;;;;;0.75;0.52;;;;;;;;;;5032956;28;20079;-63
2023/07/04 03:11:56;;;;;;;0.75;0.40;;;;;;;;;;5033904;28;20050;-63
2023/07/04 03:14:22;;;;;;;2.03;0.80;;;;;;;;;;5035939;28;20048;-63
2023/07/04 03:16:48;;;;;;;1.00;0.80;;;;;;;;;;5035381;28;20136;-63
2023/07/04 03:19:14;;;;;;;0.65;0.40;;;;;;;;;;5033066;28;20413;-63
2023/07/04 03:21:40;;;;;;;0.60;0.60;;;;;;;;;;5036818;28;20045;-63
2023/07/04 03:24:06;;;;;;;0.90;0.70;;;;;;;;;;5038039;28;20050;-63
2023/07/04 03:26:34;;;;;;;1.23;0.52;;;;;;;;;;5038030;28;20056;-63
2023/07/04 03:29:00;;;;;;;0.68;0.50;;;;;;;;;;5042494;28;20052;-63
2023/07/04 03:31:26;;;;;;;0.40;0.40;;;;;;;;;;5039146;28;20065;-63
2023/07/04 03:33:52;;;;;;;0.60;0.40;;;;;;;;;;5038063;28;20452;-63
2023/07/04 03:36:19;;;;;;;0.68;0.60;;;;;;;;;;5037337;28;20049;-63
2023/07/04 03:38:45;;;;;;;1.52;0.60;;;;;;;;;;5039183;28;20978;-63
2023/07/04 03:41:11;;;;;;;1.70;0.88;;;;;;;;;;5038312;28;20571;-63
2023/07/04 03:43:37;;;;;;;1.83;0.88;;;;;;;;;;5035942;28;20041;-63
2023/07/04 03:46:04;;;;;;;0.50;0.50;;;;;;;;;;5041347;28;20522;-63
2023/07/04 03:48:31;;;;;;;0.90;0.50;;;;;;;;;;5038103;28;20282;-63
2023/07/04 03:50:57;;;;;;;1.42;0.60;;;;;;;;;;5040192;28;20103;-63
2023/07/04 03:53:23;;;;;;;1.05;0.50;;;;;;;;;;5038836;28;20103;-63
2023/07/04 03:55:49;;;;;;;0.68;0.52;;;;;;;;;;5037490;28;20123;-63
2023/07/04 03:58:17;;;;;;;0.93;0.50;;;;;;;;;;5040093;28;20033;-63
2023/07/04 04:00:45;;;;;;;0.40;0.25;;;;;;;;;;5040830;28;20049;-63
2023/07/04 04:03:12;;;;;;;0.20;0.20;;;;;;;;;;5039845;28;20416;-63
2023/07/04 04:05:39;;;;;;;0.20;0.20;;;;;;;;;;5036720;28;20999;-63
2023/07/04 04:08:05;;;;;;;0.47;0.30;;;;;;;;;;5035319;28;20037;-63
2023/07/04 04:10:50;;;;;;;0.50;0.50;;;;;;;;;;5038753;28;20058;-63
2023/07/04 04:13:34;;;;;;;0.95;0.38;;;;;;;;;;5033877;28;20512;-63
2023/07/04 04:16:19;;;;;;;1.00;0.30;;;;;;;;;;5033338;28;20043;-63
2023/07/04 04:18:45;;;;;;;0.80;0.38;;;;;;;;;;5039723;28;20513;-63
2023/07/04 04:21:11;;;;;;;0.50;0.50;;;;;;;;;;5038795;28;20390;-63
2023/07/04 04:23:37;;;;;;;0.40;0.40;;;;;;;;;;5036366;28;20037;-63
2023/07/04 04:26:03;;;;;;;0.77;0.30;;;;;;;;;;5038111;28;20048;-63
2023/07/04 04:28:29;;;;;;;0.68;0.50;;;;;;;;;;5036675;28;20093;-63
2023/07/04 04:30:55;;;;;;;0.43;0.32;;;;;;;;;;5040398;28;20045;-63
2023/07/04 04:33:21;;;;;;;0.35;0.30;;;;;;;;;;5035884;28;20038;-63
2023/07/04 04:35:47;;;;;;;0.47;0.47;;;;;;;;;;5032022;28;20132;-63
2023/07/04 04:38:13;;;;;;;0.60;0.30;;;;;;;;;;5035930;28;20770;-63
2023/07/04 04:40:39;;;;;;;0.32;0.20;;;;;;;;;;5036218;28;21614;-63
2023/07/04 04:43:05;;;;;;;0.43;0.30;;;;;;;;;;5037694;28;20041;-63
2023/07/04 04:45:31;;;;;;;0.68;0.30;;;;;;;;;;5036073;28;20033;-63
2023/07/04 04:48:01;;;;;;;0.22;0.20;;;;;;;;;;5038671;28;20041;-63
2023/07/04 04:50:30;;;;;;;0.20;0.20;;;;;;;;;;5036744;28;20048;-63
2023/07/04 04:52:57;;;;;;;0.52;0.20;;;;;;;;;;5036108;28;20048;-63
2023/07/04 04:55:23;;;;;;;0.30;0.20;;;;;;;;;;5035988;28;20087;-63
2023/07/04 04:57:49;;;;;;;2.05;0.50;;;;;;;;;;5035401;28;20166;-63
2023/07/04 05:00:16;;;;;;;0.90;0.30;;;;;;;;;;5039971;28;20052;-63
2023/07/04 05:02:42;;;;;;;1.85;0.40;;;;;;;;;;5039763;28;20045;-63
2023/07/04 05:05:08;;;;;;;0.77;0.40;;;;;;;;;;5037793;28;20482;-63
2023/07/04 05:07:34;;;;;;;1.00;0.50;;;;;;;;;;5036449;28;20552;-63
2023/07/04 05:10:00;;;;;;;0.73;0.47;;;;;;;;;;5043118;28;20094;-63
2023/07/04 05:12:27;;;;;;;0.35;0.35;;;;;;;;;;5037702;28;20751;-63
2023/07/04 05:14:53;;;;;;;0.30;0.30;;;;;;;;;;5036163;28;20919;-63
2023/07/04 05:17:19;;;;;;;0.90;0.38;;;;;;;;;;5036677;28;20061;-63
2023/07/04 05:19:48;;;;;;;1.35;0.40;;;;;;;;;;5035101;28;20148;-63
2023/07/04 05:22:14;;;;;;;1.85;0.85;;;;;;;;;;5038956;28;20115;-63
2023/07/04 05:24:40;;;;;;;0.82;0.40;;;;;;;;;;5034963;28;20045;-63
2023/07/04 05:27:06;;;;;;;0.50;0.50;;;;;;;;;;5034195;28;20095;-63
2023/07/04 05:29:32;;;;;;;0.73;0.40;;;;;;;;;;5037990;28;20493;-63
2023/07/04 05:31:58;;;;;;;0.60;0.60;;;;;;;;;;5036920;28;20063;-63
2023/07/04 05:34:24;;;;;;;0.70;0.55;;;;;;;;;;5039324;28;20069;-62
2023/07/04 05:36:50;;;;;;;1.58;0.65;;;;;;;;;;5035032;28;20124;-62
2023/07/04 05:39:16;;;;;;;0.55;0.55;;;;;;;;;;5038109;28;20153;-63
2023/07/04 05:41:42;;;;;;;1.02;0.52;;;;;;;;;;5034438;28;20037;-63
2023/07/04 05:44:09;;;;;;;1.13;1.02;;;;;;;;;;5034805;28;20033;-63
2023/07/04 05:46:36;;;;;;;0.63;0.60;;;;;;;;;;5034163;28;20052;-63
2023/07/04 05:49:03;;;;;;;1.27;0.90;;;;;;;;;;5036166;28;20083;-63
2023/07/04 05:51:29;;;;;;;1.23;0.60;;;;;;;;;;5035188;28;20033;-63
2023/07/04 05:53:55;;;;;;;1.30;0.90;;;;;;;;;;5033563;28;20041;-63
2023/07/04 05:56:21;;;;;;;1.60;0.77;;;;;;;;;;5035081;28;20044;-63
2023/07/04 05:58:49;;;;;;;1.42;0.80;;;;;;;;;;5040065;28;20530;-63
2023/07/04 06:01:16;;;;;;;1.10;0.70;;;;;;;;;;5036425;28;20029;-63
2023/07/04 06:03:46;;;;;;;0.80;0.70;;;;;;;;;;5037784;28;20406;-63
2023/07/04 06:06:24;;;;;;;0.77;0.75;;;;;;;;;;5039032;28;20124;-63
2023/07/04 06:08:51;;;;;;;1.50;1.15;;;;;;;;;;5035251;28;20052;-63
2023/07/04 06:11:18;;;;;;;2.20;1.00;;;;;;;;;;5033309;28;20053;-63
2023/07/04 06:13:44;;;;;;;1.15;0.70;;;;;;;;;;5038217;28;20095;-63
2023/07/04 06:16:11;;;;;;;4.15;1.33;;;;;;;;;;5034690;28;20171;-63
2023/07/04 06:18:37;;;;;;;2.83;1.23;;;;;;;;;;5033358;28;20041;-63
2023/07/04 06:21:12;;;;;;;1.35;0.82;;;;;;;;;;5032109;28;20037;-62
2023/07/04 06:23:39;;;;;;;2.08;1.25;;;;;;;;;;5037027;28;20037;-62
2023/07/04 06:26:05;;;;;;;3.03;1.67;;;;;;;;;;5033171;28;20037;-62
2023/07/04 06:28:32;;;;;;;2.72;1.20;;;;;;;;;;5034608;28;20037;-62
2023/07/04 06:30:58;;;;;;;1.15;0.77;;;;;;;;;;5033379;28;20098;-62
2023/07/04 06:33:26;;;;;;;1.33;0.73;;;;;;;;;;5038385;28;20041;-62
2023/07/04 06:35:52;;;;;;;1.73;0.80;;;;;;;;;;5034297;28;20413;-62
2023/07/04 06:38:18;;;;;;;1.27;0.85;;;;;;;;;;5033807;28;20558;-62
2023/07/04 06:40:54;;;;;;;1.65;0.80;;;;;;;;;;5038870;28;20037;-62
2023/07/04 06:43:20;;;;;;;4.70;1.30;;;;;;;;;;5033468;28;20045;-62
2023/07/04 06:45:46;;;;;;;1.27;0.70;;;;;;;;;;5034214;28;20033;-62
2023/07/04 06:48:12;;;;;;;0.90;0.70;;;;;;;;;;5034092;28;20048;-62
2023/07/04 06:50:38;;;;;;;2.38;1.10;;;;;;;;;;5031291;28;20496;-62
2023/07/04 06:53:04;;;;;;;2.58;1.13;;;;;;;;;;5036915;28;20044;-62
2023/07/04 06:55:30;;;;;;;3.08;1.00;;;;;;;;;;5035294;28;20137;-62
2023/07/04 06:57:56;;;;;;;3.58;1.02;;;;;;;;;;5032688;28;20037;-62
2023/07/04 07:00:22;;;;;;;1.58;1.00;;;;;;;;;;5034802;28;20065;-62
2023/07/04 07:02:49;;;;;;;1.55;0.82;;;;;;;;;;5032370;28;20047;-63
2023/07/04 07:05:15;;;;;;;2.15;0.80;;;;;;;;;;5035282;28;20045;-63
2023/07/04 07:07:42;;;;;;;0.70;0.70;;;;;;;;;;5033802;28;20120;-63
2023/07/04 07:10:08;;;;;;;9.82;1.67;;;;;;;;;;5032602;28;20119;-62
2023/07/04 07:12:35;;;;;;;2.95;0.90;;;;;;;;;;5034734;28;20505;-62
2023/07/04 07:15:01;;;;;;;1.77;0.80;;;;;;;;;;5035134;28;20037;-62
2023/07/04 07:17:27;;;;;;;3.40;1.38;;;;;;;;;;5031326;28;20048;-63
2023/07/04 07:19:53;;;;;;;2.22;1.20;;;;;;;;;;5032642;28;20046;-62
2023/07/04 07:22:19;;;;;;;1.58;0.93;;;;;;;;;;5034955;28;20656;-62
2023/07/04 07:24:45;;;;;;;3.65;1.42;;;;;;;;;;5033613;28;20144;-62
2023/07/04 07:27:11;;;;;;;3.63;1.02;;;;;;;;;;5032849;28;20082;-62
2023/07/04 07:29:37;;;;;;;2.05;0.82;;;;;;;;;;5032877;28;20123;-62
2023/07/04 07:32:04;;;;;;;1.00;0.70;;;;;;;;;;5033212;28;20120;-62
2023/07/04 07:34:30;;;;;;;1.75;0.75;;;;;;;;;;5034564;28;20532;-62
2023/07/04 07:36:56;;;;;;;3.83;0.93;;;;;;;;;;5033441;28;20037;-62
2023/07/04 07:39:22;;;;;;;3.42;1.10;;;;;;;;;;5030205;28;20038;-62
2023/07/04 07:41:49;;;;;;;1.67;0.80;;;;;;;;;;5033542;28;20052;-62
2023/07/04 07:44:15;;;;;;;2.17;1.13;;;;;;;;;;5031434;28;20644;-62
2023/07/04 07:46:42;;;;;;;1.83;0.80;;;;;;;;;;5034351;28;20045;-62
2023/07/04 07:49:08;;;;;;;1.60;1.20;;;;;;;;;;5032903;28;20072;-62
2023/07/04 07:51:34;;;;;;;2.30;0.93;;;;;;;;;;5032092;28;20046;-62
2023/07/04 07:54:01;;;;;;;5.90;1.00;;;;;;;;;;5034094;28;20032;-62
2023/07/04 07:56:30;;;;;;;2.95;1.08;;;;;;;;;;5030729;28;20045;-62
2023/07/04 07:58:56;;;;;;;1.30;0.70;;;;;;;;;;5037187;28;20037;-60
2023/07/04 08:01:23;;;;;;;1.80;1.08;;;;;;;;;;5042842;28;20037;-60
2023/07/04 08:03:50;;;;;;;1.55;0.90;;;;;;;;;;5043319;28;20037;-59
2023/07/04 08:06:27;;;;;;;1.10;0.88;;;;;;;;;;5043373;28;20076;-64
2023/07/04 08:08:53;;;;;;;3.83;1.33;;;;;;;;;;5043570;28;20049;-63
2023/07/04 08:11:20;;;;;;;2.13;1.30;;;;;;;;;;5046687;28;20088;-65
2023/07/04 08:13:46;;;;;;;2.28;1.23;;;;;;;;;;5045356;28;20548;-62
2023/07/04 08:16:16;;;;;;;2.40;1.10;;;;;;;;;;5046551;28;20049;-62
2023/07/04 08:18:42;;;;;;;2.70;1.30;;;;;;;;;;5048000;28;20504;-62
2023/07/04 08:21:08;;;;;;;3.40;1.33;;;;;;;;;;5047567;28;20071;-62
2023/07/04 08:23:34;;;;;;;1.63;0.98;;;;;;;;;;5048372;28;20572;-62
2023/07/04 08:26:00;;;;;;;2.85;1.10;;;;;;;;;;5048953;28;20045;-62
2023/07/04 08:28:26;;;;;;;7.38;1.15;;;;;;;;;;5044389;28;20068;-63
2023/07/04 08:30:53;;;;;;;2.50;1.15;;;;;;;;;;5043023;28;20397;-63
2023/07/04 08:33:19;;;;;;;4.57;1.50;;;;;;;;;;5038567;28;20042;-63
2023/07/04 08:36:01;;;;;;;2.22;1.05;;;;;;;;;;5038663;28;20501;-62
2023/07/04 08:38:28;;;;;;;1.70;0.82;;;;;;;;;;5038532;28;20029;-63
2023/07/04 08:40:54;;;;;;;3.17;1.25;;;;;;;;;;5039848;28;20143;-63
2023/07/04 08:43:26;;;;;;;2.63;1.08;;;;;;;;;;5033963;28;20038;-63
2023/07/04 08:45:52;;;;;;;1.60;0.98;;;;;;;;;;5038902;28;20046;-63
2023/07/04 08:48:18;;;;;;;3.80;1.48;;;;;;;;;;5030271;28;20064;-63
2023/07/04 08:50:46;;;;;;;4.45;1.42;;;;;;;;;;5043218;28;20098;-62
2023/07/04 08:53:16;;;;;;;3.30;1.55;;;;;;;;;;5037091;28;20124;-62
2023/07/04 08:55:46;;;;;;;4.38;1.83;;;;;;;;;;5030175;28;20103;-62
2023/07/04 08:58:14;;;;;;;2.88;1.20;;;;;;;;;;5031718;28;20099;-62
2023/07/04 09:00:42;;;;;;;3.78;1.42;;;;;;;;;;5034457;28;20037;-63
2023/07/04 09:03:17;;;;;;;7.03;2.05;;;;;;;;;;5032712;28;20441;-62
2023/07/04 09:06:02;;;;;;;4.88;1.60;;;;;;;;;;5027549;28;20049;-62
2023/07/04 09:08:47;;;;;;;5.68;1.90;;;;;;;;;;5030014;28;20042;-62
2023/07/04 09:11:13;;;;;;;5.72;1.80;;;;;;;;;;5028038;28;20057;-62
2023/07/04 09:13:47;;;;;;;5.05;1.80;;;;;;;;;;5038012;28;20089;-62
2023/07/04 09:16:22;;;;;;;5.18;1.90;;;;;;;;;;5042253;28;20535;-62
2023/07/04 09:18:52;;;;;;;3.78;1.33;;;;;;;;;;5038824;28;20049;-62
2023/07/04 09:21:19;;;;;;;3.40;1.38;;;;;;;;;;5040975;28;20045;-62
2023/07/04 09:23:46;;;;;;;4.22;1.42;;;;;;;;;;5039497;28;20037;-63
2023/07/04 09:26:15;;;;;;;9.15;1.90;;;;;;;;;;5045817;28;20043;-63
2023/07/04 09:28:42;;;;;;;6.55;1.92;;;;;;;;;;5044490;28;20159;-63
2023/07/04 09:31:12;;;;;;;6.35;1.90;;;;;;;;;;5036708;28;20045;-63
2023/07/04 09:33:38;;;;;;;5.35;1.83;;;;;;;;;;5038302;28;20670;-62
2023/07/04 09:36:06;;;;;;;9.18;2.08;;;;;;;;;;5045391;28;20091;-62
2023/07/04 09:38:51;;;;;;;4.53;1.60;;;;;;;;;;5046026;28;20052;-62
2023/07/04 09:41:17;;;;;;;3.88;1.50;;;;;;;;;;5046169;28;20053;-62
2023/07/04 09:43:44;;;;;;;5.63;2.17;;;;;;;;;;5044777;28;20037;-62
2023/07/04 09:46:30;;;;;;;7.00;1.70;;;;;;;;;;5043818;28;20618;-62
2023/07/04 09:49:16;;;;;;;2.85;1.38;;;;;;;;;;5044463;28;20049;-62
2023/07/04 09:51:42;;;;;;;2.38;0.80;;;;;;;;;;5044184;28;20041;-62
2023/07/04 09:54:09;;;;;;;1.67;0.90;;;;;;;;;;5041569;28;20038;-62
2023/07/04 09:56:36;;;;;;;5.50;1.83;;;;;;;;;;5040863;28;20048;-63
2023/07/04 09:59:19;;;;;;;3.83;1.10;;;;;;;;;;5035365;28;20041;-63
2023/07/04 10:01:52;;;;;;;2.08;0.90;;;;;;;;;;5027369;28;20048;-62
2023/07/04 10:04:33;;;;;;;2.63;1.20;;;;;;;;;;5037260;28;20481;-61
2023/07/04 10:06:59;;;;;;;2.10;0.88;;;;;;;;;;5042940;28;20051;-62
2023/07/04 10:09:26;;;;;;;3.55;1.10;;;;;;;;;;5044154;28;20044;-61
2023/07/04 10:12:07;;;;;;;6.07;1.30;;;;;;;;;;5034017;28;20095;-62
2023/07/04 10:14:34;;;;;;;3.90;1.15;;;;;;;;;;5031499;28;20049;-62
2023/07/04 10:17:08;;;;;;;1.75;0.98;;;;;;;;;;5028479;28;20494;-62
2023/07/04 10:19:40;;;;;;;1.35;0.90;;;;;;;;;;5032793;28;20091;-62
2023/07/04 10:22:06;;;;;;;1.58;0.85;;;;;;;;;;5028410;28;20041;-62
2023/07/04 10:24:34;;;;;;;2.17;0.90;;;;;;;;;;5025395;28;20053;-62
2023/07/04 10:27:03;;;;;;;3.00;1.50;;;;;;;;;;5026283;28;20045;-62
2023/07/04 10:29:31;;;;;;;3.70;1.33;;;;;;;;;;5032515;28;20402;-62
2023/07/04 10:31:59;;;;;;;2.55;1.15;;;;;;;;;;5030059;28;20049;-62
2023/07/04 10:34:26;;;;;;;3.75;1.27;;;;;;;;;;5025299;28;20099;-62
2023/07/04 10:36:53;;;;;;;2.10;0.98;;;;;;;;;;5025906;28;20068;-62
2023/07/04 10:39:19;;;;;;;3.00;1.30;;;;;;;;;;5029484;28;20033;-62
2023/07/04 10:42:00;;;;;;;3.67;1.23;;;;;;;;;;5024417;28;20048;-62
2023/07/04 10:44:30;;;;;;;2.83;1.40;;;;;;;;;;5025024;28;20053;-62
2023/07/04 10:47:02;;;;;;;3.15;0.75;;;;;;;;;;5028813;28;20051;-62
2023/07/04 10:49:30;;;;;;;2.33;0.73;;;;;;;;;;5026352;28;20513;-62
2023/07/04 10:52:05;;;;;;;3.28;1.33;;;;;;;;;;5027661;28;20057;-62
2023/07/04 10:54:31;;;;;;;2.88;0.90;;;;;;;;;;5029208;28;20088;-62
2023/07/04 10:57:10;;;;;;;5.55;1.65;;;;;;;;;;5023739;28;20539;-60
2023/07/04 10:59:38;;;;;;;1.23;0.93;;;;;;;;;;5041586;28;20500;-62
2023/07/04 11:02:19;;;;;;;3.75;0.75;;;;;;;;;;5031669;28;20044;-62
2023/07/04 11:04:46;;;;;;;3.57;1.00;;;;;;;;;;5040453;28;20040;-62
2023/07/04 11:07:23;;;;;;;5.35;1.33;;;;;;;;;;5042975;28;20044;-61
2023/07/04 11:09:52;;;;;;;4.65;1.25;;;;;;;;;;5044504;28;20080;-61
2023/07/04 11:12:19;;;;;;;2.80;1.00;;;;;;;;;;5039068;28;20065;-61
2023/07/04 11:14:46;;;;;;;2.47;1.00;;;;;;;;;;5039359;28;20316;-61
2023/07/04 11:17:14;;;;;;;4.00;0.88;;;;;;;;;;5042718;28;20560;-61
2023/07/04 11:19:59;;;;;;;3.47;1.23;;;;;;;;;;5045168;28;20049;-62
2023/07/04 11:22:48;;;;;;;3.13;1.42;;;;;;;;;;5045150;28;20040;-61
2023/07/04 11:25:40;;;;;;;1.92;1.20;;;;;;;;;;5039561;28;20119;-61
2023/07/04 11:28:15;;;;;;;1.77;0.90;;;;;;;;;;5030781;28;20059;-61
2023/07/04 11:30:42;;;;;;;4.68;1.50;;;;;;;;;;5046406;28;20055;-61
2023/07/04 11:33:08;;;;;;;4.80;1.88;;;;;;;;;;5045322;28;20041;-61
2023/07/04 11:35:37;;;;;;;3.28;1.15;;;;;;;;;;5045400;28;20143;-61
2023/07/04 11:38:13;;;;;;;2.33;1.23;;;;;;;;;;5045146;28;20417;-61
2023/07/04 11:40:50;;;;;;;3.17;1.30;;;;;;;;;;5045869;28;20533;-61
2023/07/04 11:43:24;;;;;;;2.88;1.33;;;;;;;;;;5046451;28;20045;-61
2023/07/04 11:45:54;;;;;;;2.05;1.00;;;;;;;;;;5049138;28;20072;-61
2023/07/04 11:48:20;;;;;;;5.32;1.42;;;;;;;;;;5051248;28;20509;-61
2023/07/04 11:50:50;;;;;;;2.90;1.10;;;;;;;;;;5051922;28;20045;-61
2023/07/04 11:53:37;;;;;;;3.15;1.02;;;;;;;;;;5050798;28;20041;-61
2023/07/04 11:56:23;;;;;;;2.15;1.30;;;;;;;;;;5051453;28;20447;-61
2023/07/04 11:59:05;;;;;;;3.20;1.13;;;;;;;;;;5051126;28;20075;-61
2023/07/04 12:01:51;;;;;;;3.33;1.10;;;;;;;;;;5051618;28;20049;-61
2023/07/04 12:04:36;;;;;;;4.85;1.20;;;;;;;;;;5051278;28;20120;-61
2023/07/04 12:07:03;;;;;;;4.75;1.50;;;;;;;;;;5049444;28;20413;-62
2023/07/04 12:09:49;;;;;;;3.97;1.23;;;;;;;;;;5051145;28;20045;-61
2023/07/04 12:12:34;;;;;;;1.73;0.95;;;;;;;;;;5043793;28;20064;-61
2023/07/04 12:15:06;;;;;;;3.13;1.17;;;;;;;;;;5050673;28;20091;-61
2023/07/04 12:17:33;;;;;;;3.53;1.35;;;;;;;;;;5051368;28;20049;-61
2023/07/04 12:20:09;;;;;;;1.52;0.98;;;;;;;;;;5050713;28;20041;-61
2023/07/04 12:22:36;;;;;;;3.42;1.23;;;;;;;;;;5050899;28;20436;-61
2023/07/04 12:25:14;;;;;;;3.95;1.00;;;;;;;;;;5051269;28;20049;-61
2023/07/04 12:27:42;;;;;;;3.67;1.13;;;;;;;;;;5050230;28;20572;-61
2023/07/04 12:30:10;;;;;;;3.03;0.85;;;;;;;;;;5049396;28;20056;-61
2023/07/04 12:32:39;;;;;;;2.47;1.40;;;;;;;;;;5050676;28;20255;-62
2023/07/04 12:35:06;;;;;;;2.33;1.10;;;;;;;;;;5049960;28;20444;-62
2023/07/04 12:37:39;;;;;;;3.15;1.05;;;;;;;;;;5050573;28;20414;-62
2023/07/04 12:40:06;;;;;;;2.28;1.15;;;;;;;;;;5050659;28;20500;-61
2023/07/04 12:42:33;;;;;;;2.72;1.00;;;;;;;;;;5050231;28;20401;-61
2023/07/04 12:44:59;;;;;;;2.80;1.15;;;;;;;;;;5051061;28;20048;-61
2023/07/04 12:47:26;;;;;;;3.83;1.20;;;;;;;;;;5050502;28;20044;-62
2023/07/04 12:49:53;;;;;;;1.42;0.77;;;;;;;;;;5050208;28;20047;-62
2023/07/04 12:52:29;;;;;;;4.45;1.08;;;;;;;;;;5050350;28;20045;-62
2023/07/04 12:54:56;;;;;;;2.22;1.00;;;;;;;;;;5049905;28;20044;-62
2023/07/04 12:57:23;;;;;;;2.40;1.20;;;;;;;;;;5049328;28;20049;-62
2023/07/04 12:59:50;;;;;;;2.90;0.95;;;;;;;;;;5050546;28;20512;-62
2023/07/04 13:02:25;;;;;;;2.35;0.90;;;;;;;;;;5049593;28;20041;-62
2023/07/04 13:04:53;;;;;;;3.13;1.17;;;;;;;;;;5050511;28;20528;-62
2023/07/04 13:07:21;;;;;;;3.10;1.42;;;;;;;;;;5049860;28;20619;-62
2023/07/04 13:09:49;;;;;;;1.77;1.13;;;;;;;;;;5049674;28;20049;-62
2023/07/04 13:12:22;;;;;;;3.75;1.13;;;;;;;;;;5049727;28;20086;-62
2023/07/04 13:14:48;;;;;;;1.95;1.10;;;;;;;;;;5050391;28;20754;-62
2023/07/04 13:17:19;;;;;;;2.50;1.00;;;;;;;;;;5048916;28;20123;-62
2023/07/04 13:19:45;;;;;;;1.48;0.80;;;;;;;;;;5050033;28;20456;-62
2023/07/04 13:22:12;;;;;;;1.35;0.70;;;;;;;;;;5049701;28;20060;-62
2023/07/04 13:24:38;;;;;;;4.40;0.95;;;;;;;;;;5049193;28;20041;-62
2023/07/04 13:27:12;;;;;;;2.33;0.90;;;;;;;;;;5049897;28;20571;-62
2023/07/04 13:29:47;;;;;;;2.05;1.10;;;;;;;;;;5047865;28;20517;-62
2023/07/04 13:32:27;;;;;;;2.42;1.20;;;;;;;;;;5048066;28;20048;-62
2023/07/04 13:34:53;;;;;;;5.32;1.45;;;;;;;;;;5048821;28;20048;-62
2023/07/04 13:37:20;;;;;;;2.03;1.35;;;;;;;;;;5048821;28;20048;-62
2023/07/04 13:39:47;;;;;;;2.40;1.10;;;;;;;;;;5049685;28;20037;-62
2023/07/04 13:42:13;;;;;;;5.28;1.17;;;;;;;;;;5049254;28;20071;-62
2023/07/04 13:44:40;;;;;;;2.40;1.27;;;;;;;;;;5048401;28;20041;-61
2023/07/04 13:47:08;;;;;;;2.13;0.90;;;;;;;;;;5049792;28;20401;-61
2023/07/04 13:49:34;;;;;;;3.58;1.65;;;;;;;;;;5049688;28;20045;-61
2023/07/04 13:52:00;;;;;;;4.35;1.60;;;;;;;;;;5047542;28;20600;-61
2023/07/04 13:54:26;;;;;;;2.83;1.20;;;;;;;;;;5048824;28;20379;-61
2023/07/04 13:56:52;;;;;;;2.30;1.23;;;;;;;;;;5046664;28;20640;-61
2023/07/04 13:59:18;;;;;;;2.97;0.93;;;;;;;;;;5046610;28;20036;-61
2023/07/04 14:01:44;;;;;;;1.92;0.98;;;;;;;;;;5047709;28;20041;-62
2023/07/04 14:04:10;;;;;;;2.70;1.30;;;;;;;;;;5048569;28;20086;-62
2023/07/04 14:06:36;;;;;;;5.38;1.55;;;;;;;;;;5047563;28;20253;-62
2023/07/04 14:09:02;;;;;;;4.13;1.30;;;;;;;;;;5048596;28;20799;-62
2023/07/04 14:11:28;;;;;;;4.30;1.30;;;;;;;;;;5048084;28;20103;-62
2023/07/04 14:13:54;;;;;;;2.35;1.20;;;;;;;;;;5048043;28;20044;-62
2023/07/04 14:16:23;;;;;;;2.03;0.88;;;;;;;;;;5046467;28;20047;-62
2023/07/04 14:18:49;;;;;;;5.38;1.60;;;;;;;;;;5047504;28;20085;-62
2023/07/04 14:21:15;;;;;;;3.88;1.30;;;;;;;;;;5046460;28;20092;-62
2023/07/04 14:23:43;;;;;;;3.60;1.20;;;;;;;;;;5046930;28;20417;-62
2023/07/04 14:26:16;;;;;;;3.58;1.30;;;;;;;;;;5046486;28;20080;-62
2023/07/04 14:28:42;;;;;;;4.40;1.33;;;;;;;;;;5045947;28;20037;-62
2023/07/04 14:31:08;;;;;;;3.30;1.50;;;;;;;;;;5046649;28;20043;-62
2023/07/04 14:33:34;;;;;;;3.03;1.08;;;;;;;;;;5045843;28;20037;-61
2023/07/04 14:36:03;;;;;;;1.90;1.13;;;;;;;;;;5046746;28;20041;-61
2023/07/04 14:38:29;;;;;;;1.92;1.25;;;;;;;;;;5046350;28;20053;-62
2023/07/04 14:40:55;;;;;;;1.90;0.75;;;;;;;;;;5045810;28;20033;-62
2023/07/04 14:43:21;;;;;;;1.23;0.80;;;;;;;;;;5046556;28;20040;-61
2023/07/04 14:46:00;;;;;;;1.85;0.70;;;;;;;;;;5046535;28;20041;-62
2023/07/04 14:48:26;;;;;;;1.23;0.70;;;;;;;;;;5045347;28;20040;-62
2023/07/04 14:51:04;;;;;;;1.55;0.55;;;;;;;;;;5046534;28;20510;-62